Redoak, Ohio
Current Conditions -  °F | °C
As of 10:15 AM on Thursday 25 Dec 2014 (Local Time) from KFGX Reporting Station
Light Rain Light Rain  
Wind Chill: 28°   Ceiling: 1500
Heat Index: 35°   Visibility: 10mi
Dew Point: 34°   Wind: 9mph
Humidity: 94%   Direction: 280°W
Pressure: 30.14"   Gusts: NA
Location:  38.776°N, 83.7985°W
Report Text: KFGX 251515Z AUTO 28008KT 10SM -RA BKN015 OVC026 02/01 A3014 RMK AO2 T00180009
Loading
Personal Weather Stations






























Interactive Weather Map New forecast layout! Learn more

10-Day Weather Forecast

Advertisements
Track Severe Weather on mobile